Time;durP1;ratioP1;P1;durP2;ratioP2;P2;SDS_P1;SDS_P2;PMS_P1;PMS_P2;Temp;Humidity;BMP_temperature;BMP_pressure;BME280_temperature;BME280_humidity;BME280_pressure;Samples;Min_cycle;Max_cycle;Signal;HPM_P1;HPM_P2
2023/01/09 00:00:22;;;;;;;8.00;6.60;;;6.20;99.90;;;;;;5038817;28;20211;-66
2023/01/09 00:02:48;;;;;;;8.43;7.13;;;6.20;99.90;;;;;;5038244;28;20492;-66
2023/01/09 00:05:15;;;;;;;7.90;7.10;;;6.20;99.90;;;;;;5040007;28;20773;-64
2023/01/09 00:07:41;;;;;;;6.37;5.83;;;6.10;99.90;;;;;;5040016;28;20199;-65
2023/01/09 00:10:08;;;;;;;15.37;11.80;;;6.10;99.90;;;;;;5039221;28;20213;-65
2023/01/09 00:12:34;;;;;;;9.70;8.07;;;6.10;99.90;;;;;;5035275;28;20715;-66
2023/01/09 00:14:59;;;;;;;8.20;6.77;;;6.10;99.90;;;;;;5039968;28;20211;-66
2023/01/09 00:17:25;;;;;;;7.73;6.73;;;6.00;99.90;;;;;;5037963;28;20207;-66
2023/01/09 00:19:50;;;;;;;7.83;7.03;;;6.00;99.90;;;;;;5038303;28;20673;-67
2023/01/09 00:22:16;;;;;;;9.43;7.93;;;6.00;99.90;;;;;;5027784;28;21239;-66
2023/01/09 00:24:41;;;;;;;9.53;7.23;;;6.00;99.90;;;;;;5017814;28;20639;-64
2023/01/09 00:27:07;;;;;;;7.57;6.83;;;6.00;99.90;;;;;;5021089;28;20194;-65
2023/01/09 00:29:33;;;;;;;9.20;8.23;;;6.00;99.90;;;;;;5039523;28;20218;-66
2023/01/09 00:31:58;;;;;;;8.00;7.20;;;6.00;99.90;;;;;;5034436;28;20191;-65
2023/01/09 00:34:25;;;;;;;9.87;7.90;;;6.00;99.90;;;;;;5039263;28;20206;-65
2023/01/09 00:36:54;;;;;;;7.87;6.20;;;6.00;99.90;;;;;;5028548;28;20235;-65
2023/01/09 00:39:21;;;;;;;7.90;7.03;;;6.00;99.90;;;;;;5027831;28;20203;-65
2023/01/09 00:41:50;;;;;;;7.83;7.10;;;6.00;99.90;;;;;;5039117;28;20684;-66
2023/01/09 00:44:20;;;;;;;9.27;7.00;;;6.00;99.90;;;;;;5037149;28;20760;-64
2023/01/09 00:46:53;;;;;;;8.40;7.50;;;6.00;99.90;;;;;;5029650;28;20674;-66
2023/01/09 00:49:20;;;;;;;9.33;7.73;;;5.90;99.90;;;;;;5024445;28;20643;-66
2023/01/09 00:51:46;;;;;;;8.00;7.20;;;5.90;99.90;;;;;;5028818;28;20289;-66
2023/01/09 00:54:15;;;;;;;8.07;6.90;;;5.90;99.90;;;;;;5029520;28;20627;-66
2023/01/09 00:56:40;;;;;;;7.37;6.63;;;5.80;99.90;;;;;;5028856;28;20195;-65
2023/01/09 00:59:06;;;;;;;7.73;6.97;;;5.80;99.90;;;;;;5028830;28;20209;-67
2023/01/09 01:01:32;;;;;;;10.83;8.00;;;5.80;99.90;;;;;;5019068;28;20215;-66
2023/01/09 01:03:57;;;;;;;6.80;6.17;;;5.80;99.90;;;;;;5029925;28;20997;-67
2023/01/09 01:09:07;;;;;;;8.20;7.40;;;5.80;99.90;;;;;;5038079;28;20233;-66
2023/01/09 01:11:33;;;;;;;10.27;8.83;;;5.70;99.90;;;;;;5039030;28;20726;-66
2023/01/09 01:13:59;;;;;;;8.73;7.73;;;5.70;99.90;;;;;;5037193;28;20195;-66
2023/01/09 01:16:24;;;;;;;9.93;8.53;;;5.60;99.90;;;;;;5038581;28;20905;-67
2023/01/09 01:18:50;;;;;;;8.47;7.57;;;5.60;99.90;;;;;;5037534;28;20633;-66
2023/01/09 01:21:16;;;;;;;9.50;7.97;;;5.60;99.90;;;;;;5037302;28;20210;-66
2023/01/09 01:23:42;;;;;;;9.93;8.57;;;5.60;99.90;;;;;;5038233;28;20948;-67
2023/01/09 01:26:14;;;;;;;9.67;8.10;;;5.60;99.90;;;;;;5038047;28;20195;-66
2023/01/09 01:28:41;;;;;;;8.67;7.80;;;5.60;99.90;;;;;;5037341;28;20207;-66
2023/01/09 01:31:07;;;;;;;10.03;8.40;;;5.60;99.90;;;;;;5038240;28;20217;-66
2023/01/09 01:33:33;;;;;;;10.10;8.33;;;5.50;99.90;;;;;;5038745;28;20669;-66
2023/01/09 01:36:07;;;;;;;8.87;7.83;;;5.50;99.90;;;;;;5038257;28;20675;-66
2023/01/09 01:38:33;;;;;;;9.17;8.27;;;5.50;99.90;;;;;;5038469;28;20856;-65
2023/01/09 01:41:01;;;;;;;9.27;8.37;;;5.50;99.90;;;;;;5034521;28;20222;-64
2023/01/09 01:43:27;;;;;;;11.17;9.13;;;5.50;99.90;;;;;;5038188;28;20282;-65
2023/01/09 01:45:53;;;;;;;10.97;9.77;;;5.50;99.90;;;;;;5038164;28;20230;-66
2023/01/09 01:48:27;;;;;;;10.10;8.93;;;5.40;99.90;;;;;;5038001;28;20672;-66
2023/01/09 01:51:03;;;;;;;10.27;8.43;;;5.50;99.90;;;;;;5036593;28;20220;-68
2023/01/09 01:53:33;;;;;;;10.90;9.03;;;5.50;99.90;;;;;;5037276;28;20280;-67
2023/01/09 01:56:13;;;;;;;10.03;8.97;;;5.40;99.90;;;;;;5037453;28;20744;-67
2023/01/09 01:58:47;;;;;;;11.57;9.27;;;5.40;99.90;;;;;;5038005;28;20203;-66
2023/01/09 02:01:13;;;;;;;9.47;8.47;;;5.40;99.90;;;;;;5037849;28;20206;-66
2023/01/09 02:03:40;;;;;;;10.10;8.47;;;5.40;99.90;;;;;;5035434;28;20558;-67
2023/01/09 02:06:07;;;;;;;11.67;9.23;;;5.40;99.90;;;;;;5036143;28;20673;-66
2023/01/09 02:08:32;;;;;;;10.73;9.60;;;5.40;99.90;;;;;;5037301;28;20199;-66
2023/01/09 02:10:58;;;;;;;11.60;8.77;;;5.40;99.90;;;;;;5037414;28;20550;-66
2023/01/09 02:13:26;;;;;;;11.57;9.50;;;5.40;99.90;;;;;;5037654;28;20199;-67
2023/01/09 02:16:35;;;;;;;11.13;9.57;;;5.40;99.90;;;;;;5037391;28;20206;-66
2023/01/09 02:19:29;;;;;;;11.67;9.70;;;5.40;99.90;;;;;;5037575;28;21156;-67
2023/01/09 02:22:12;;;;;;;10.90;9.77;;;5.40;99.90;;;;;;5022159;28;20227;-66
2023/01/09 02:24:56;;;;;;;10.93;9.33;;;5.40;99.90;;;;;;5022713;28;20572;-66
2023/01/09 02:28:00;;;;;;;12.33;9.37;;;5.30;99.90;;;;;;5030817;28;20206;-67
2023/01/09 02:30:51;;;;;;;15.43;12.27;;;5.40;99.90;;;;;;5016728;28;20218;-66
2023/01/09 02:33:37;;;;;;;16.67;13.00;;;5.30;99.90;;;;;;5022352;28;20657;-65
2023/01/09 02:36:22;;;;;;;15.13;11.33;;;5.30;99.90;;;;;;5036562;28;20191;-66
2023/01/09 02:39:15;;;;;;;13.73;11.63;;;5.30;99.90;;;;;;5034941;28;20285;-66
2023/01/09 02:41:57;;;;;;;12.73;10.40;;;5.30;99.90;;;;;;5027223;28;20222;-66
2023/01/09 02:44:25;;;;;;;14.50;11.43;;;5.30;99.90;;;;;;5024337;28;20305;-65
2023/01/09 02:47:28;;;;;;;9.67;8.67;;;5.30;99.90;;;;;;5030918;28;20195;-66
2023/01/09 02:50:02;;;;;;;13.47;11.20;;;5.30;99.90;;;;;;5023976;28;20293;-66
2023/01/09 02:52:56;;;;;;;12.53;10.50;;;5.30;99.90;;;;;;5026972;28;20203;-66
2023/01/09 02:55:42;;;;;;;13.53;11.77;;;5.20;99.90;;;;;;5022709;28;20581;-65
2023/01/09 02:58:16;;;;;;;12.80;10.67;;;5.20;99.90;;;;;;5024483;28;20209;-65
2023/01/09 03:01:25;;;;;;;13.03;10.60;;;5.20;99.90;;;;;;5033233;28;20301;-66
2023/01/09 03:04:15;;;;;;;13.13;11.37;;;5.20;99.90;;;;;;5025108;28;20543;-66
2023/01/09 03:06:50;;;;;;;13.17;11.77;;;5.20;99.90;;;;;;5032780;28;20282;-66
2023/01/09 03:09:21;;;;;;;13.70;11.43;;;5.20;99.90;;;;;;5036498;28;20289;-65
2023/01/09 03:11:52;;;;;;;17.70;14.70;;;5.20;99.90;;;;;;5036499;28;20201;-66
2023/01/09 03:14:22;;;;;;;14.03;11.40;;;5.20;99.90;;;;;;5037066;28;20236;-66
2023/01/09 03:16:57;;;;;;;15.43;12.20;;;5.20;99.90;;;;;;5037382;28;20553;-65
2023/01/09 03:19:26;;;;;;;16.43;13.07;;;5.10;99.90;;;;;;5033219;28;20255;-64
2023/01/09 03:21:54;;;;;;;13.37;11.40;;;5.10;99.90;;;;;;5027768;28;20298;-66
2023/01/09 03:24:19;;;;;;;15.27;13.07;;;5.10;99.90;;;;;;5038895;28;20356;-65
2023/01/09 03:26:45;;;;;;;13.60;12.17;;;5.20;99.90;;;;;;5040473;28;20281;-65
2023/01/09 03:29:11;;;;;;;14.67;12.00;;;5.30;99.90;;;;;;5041127;28;20199;-66
2023/01/09 03:31:36;;;;;;;14.33;12.10;;;5.30;99.90;;;;;;5036406;28;20337;-66
2023/01/09 03:34:02;;;;;;;13.67;11.67;;;5.40;99.90;;;;;;5026733;28;20521;-66
2023/01/09 03:36:27;;;;;;;14.37;11.90;;;5.50;99.90;;;;;;5041447;28;20206;-66
2023/01/09 03:38:53;;;;;;;14.30;11.30;;;5.50;99.90;;;;;;5040002;28;20206;-66
2023/01/09 03:41:18;;;;;;;14.30;11.87;;;5.60;99.90;;;;;;5040512;28;20279;-66
2023/01/09 03:43:44;;;;;;;11.83;10.27;;;5.70;99.90;;;;;;5035643;28;20206;-66
2023/01/09 03:46:10;;;;;;;13.83;11.50;;;5.70;99.90;;;;;;5038536;28;20306;-66
2023/01/09 03:48:36;;;;;;;13.27;11.87;;;5.80;99.90;;;;;;5040443;28;20285;-66
2023/01/09 03:51:01;;;;;;;12.80;11.00;;;5.80;99.90;;;;;;5040399;28;20316;-65
2023/01/09 03:53:27;;;;;;;15.30;13.13;;;5.90;99.90;;;;;;5039989;28;20807;-66
2023/01/09 03:55:55;;;;;;;13.27;11.43;;;5.90;99.90;;;;;;5040441;28;20272;-66
2023/01/09 03:58:22;;;;;;;13.50;12.03;;;5.90;99.90;;;;;;5038642;28;20219;-67
2023/01/09 04:00:49;;;;;;;13.23;10.80;;;5.90;99.90;;;;;;5030839;28;20735;-66
2023/01/09 04:03:16;;;;;;;11.40;10.20;;;5.90;99.90;;;;;;5029678;28;20199;-67
2023/01/09 04:05:43;;;;;;;14.03;11.37;;;5.90;99.90;;;;;;5029871;28;20212;-67
2023/01/09 04:08:08;;;;;;;13.10;11.57;;;6.00;99.90;;;;;;5028022;28;20476;-66
2023/01/09 04:10:34;;;;;;;15.70;12.40;;;6.00;99.90;;;;;;5035342;28;20306;-67
2023/01/09 04:12:59;;;;;;;15.53;11.40;;;6.00;99.90;;;;;;5031662;28;20547;-65
2023/01/09 04:15:25;;;;;;;17.30;14.80;;;6.00;99.90;;;;;;5030180;28;20215;-65
2023/01/09 04:17:50;;;;;;;14.20;12.07;;;6.10;99.90;;;;;;5030650;28;20558;-64
2023/01/09 04:20:17;;;;;;;13.53;10.97;;;6.10;99.90;;;;;;5030072;28;20237;-65
2023/01/09 04:22:42;;;;;;;13.30;11.67;;;6.10;99.90;;;;;;5027883;28;20207;-66
2023/01/09 04:25:08;;;;;;;14.20;11.97;;;6.10;99.90;;;;;;5032131;28;20229;-65
2023/01/09 04:27:34;;;;;;;13.07;11.33;;;6.10;99.90;;;;;;5033775;28;20231;-66
2023/01/09 04:29:59;;;;;;;13.77;12.37;;;6.10;99.90;;;;;;5031591;28;20199;-64
2023/01/09 04:32:26;;;;;;;15.87;11.90;;;6.10;99.90;;;;;;5038743;28;20205;-65
2023/01/09 04:34:55;;;;;;;13.23;11.83;;;6.20;99.90;;;;;;5039325;28;20202;-65
2023/01/09 04:37:21;;;;;;;13.83;11.83;;;6.10;99.90;;;;;;5026327;28;20212;-65
2023/01/09 04:39:48;;;;;;;12.70;11.17;;;6.10;99.90;;;;;;5039318;28;20233;-65
2023/01/09 04:42:13;;;;;;;14.53;12.80;;;6.10;99.90;;;;;;5036935;28;20229;-65
2023/01/09 04:44:39;;;;;;;13.10;11.33;;;6.10;99.90;;;;;;5029956;28;20219;-66
2023/01/09 04:47:05;;;;;;;11.67;10.40;;;6.20;99.90;;;;;;5029393;28;20732;-66
2023/01/09 04:49:30;;;;;;;14.60;12.33;;;6.20;99.90;;;;;;5027284;28;20205;-66
2023/01/09 04:51:56;;;;;;;14.20;11.13;;;6.20;99.90;;;;;;5028731;28;20570;-66
2023/01/09 04:54:22;;;;;;;13.67;11.97;;;6.20;99.90;;;;;;5029653;28;20673;-67
2023/01/09 04:56:47;;;;;;;14.87;12.03;;;6.20;99.90;;;;;;5030075;28;20744;-65
2023/01/09 04:59:13;;;;;;;14.00;11.83;;;6.20;99.90;;;;;;5026175;28;20206;-66
2023/01/09 05:01:39;;;;;;;14.33;12.00;;;6.20;99.90;;;;;;5027531;28;20249;-64
2023/01/09 05:04:04;;;;;;;12.93;11.07;;;6.20;99.90;;;;;;5028779;28;20218;-66
2023/01/09 05:06:30;;;;;;;13.97;12.50;;;6.30;99.90;;;;;;5029299;28;20698;-66
2023/01/09 05:08:56;;;;;;;15.43;12.33;;;6.30;99.90;;;;;;5029610;28;21421;-66
2023/01/09 05:11:24;;;;;;;16.07;12.90;;;6.30;99.90;;;;;;5033944;28;20634;-66
2023/01/09 05:13:50;;;;;;;13.83;12.13;;;6.30;99.90;;;;;;5038704;28;20199;-66
2023/01/09 05:16:15;;;;;;;14.57;12.30;;;6.30;99.90;;;;;;5036940;28;20219;-65
2023/01/09 05:18:41;;;;;;;15.73;12.00;;;6.30;99.90;;;;;;5038778;28;20217;-66
2023/01/09 05:21:06;;;;;;;13.70;10.57;;;6.30;99.90;;;;;;5038699;28;20755;-65
2023/01/09 05:23:32;;;;;;;14.00;11.07;;;6.30;99.90;;;;;;5038797;28;20214;-65
2023/01/09 05:25:57;;;;;;;12.33;11.10;;;6.30;99.90;;;;;;5038479;28;20206;-64
2023/01/09 05:28:23;;;;;;;13.50;11.73;;;6.30;99.90;;;;;;5036687;28;20198;-64
2023/01/09 05:30:48;;;;;;;14.20;11.33;;;6.30;99.90;;;;;;5038491;28;20684;-65
2023/01/09 05:33:20;;;;;;;14.83;13.23;;;6.40;99.90;;;;;;5037117;28;20198;-66
2023/01/09 05:35:45;;;;;;;13.90;12.50;;;6.40;99.90;;;;;;5038289;28;20716;-65
2023/01/09 05:38:11;;;;;;;12.60;11.13;;;6.40;99.90;;;;;;5037110;28;20206;-65
2023/01/09 05:40:36;;;;;;;12.53;10.53;;;6.40;99.90;;;;;;5036420;28;20238;-65
2023/01/09 05:43:01;;;;;;;12.33;9.97;;;6.40;99.90;;;;;;5038163;28;20297;-64
2023/01/09 05:45:27;;;;;;;13.83;11.10;;;6.40;99.90;;;;;;5038402;28;20660;-64
2023/01/09 05:47:52;;;;;;;12.97;10.17;;;6.40;99.90;;;;;;5037854;28;20203;-64
2023/01/09 05:50:18;;;;;;;13.73;11.77;;;6.40;99.90;;;;;;5037871;28;20199;-65
2023/01/09 05:52:43;;;;;;;11.30;10.17;;;6.40;99.90;;;;;;5036348;28;20203;-64
2023/01/09 05:55:11;;;;;;;11.67;10.17;;;6.50;99.90;;;;;;5038118;28;20226;-65
2023/01/09 05:57:36;;;;;;;15.77;11.70;;;6.50;99.90;;;;;;5038075;28;20694;-64
2023/01/09 06:00:03;;;;;;;14.67;11.60;;;6.50;99.90;;;;;;5037807;28;20199;-65
2023/01/09 06:02:29;;;;;;;17.23;13.73;;;6.50;99.90;;;;;;5037764;28;20293;-65
2023/01/09 06:04:54;;;;;;;15.60;11.10;;;6.50;99.90;;;;;;5035363;28;20297;-65
2023/01/09 06:07:20;;;;;;;14.30;11.37;;;6.50;99.90;;;;;;5032150;28;20238;-65
2023/01/09 06:09:45;;;;;;;11.67;10.27;;;6.50;99.90;;;;;;5027455;28;20376;-66
2023/01/09 06:12:11;;;;;;;15.23;13.03;;;6.50;99.90;;;;;;5027558;28;20460;-65
2023/01/09 06:14:36;;;;;;;14.57;12.70;;;6.50;99.90;;;;;;5031010;28;20195;-66
2023/01/09 06:17:02;;;;;;;12.53;10.30;;;6.50;99.90;;;;;;5036852;28;20302;-66
2023/01/09 06:19:27;;;;;;;13.13;11.50;;;6.50;99.90;;;;;;5021451;28;20618;-66
2023/01/09 06:21:53;;;;;;;13.03;11.00;;;6.50;99.90;;;;;;5032032;28;20623;-66
2023/01/09 06:24:18;;;;;;;14.60;11.73;;;6.50;99.90;;;;;;5024271;28;20222;-66
2023/01/09 06:26:44;;;;;;;14.47;11.83;;;6.50;99.90;;;;;;5027919;28;20191;-66
2023/01/09 06:29:10;;;;;;;14.83;12.20;;;6.50;99.90;;;;;;5037398;28;20673;-65
2023/01/09 06:31:35;;;;;;;13.47;10.77;;;6.50;99.90;;;;;;5027595;28;20220;-65
2023/01/09 06:34:01;;;;;;;15.30;11.60;;;6.50;99.90;;;;;;5009346;28;20198;-64
2023/01/09 06:36:26;;;;;;;14.57;11.87;;;6.50;99.90;;;;;;5011223;28;20200;-64
2023/01/09 06:38:52;;;;;;;14.50;12.07;;;6.50;99.90;;;;;;5011238;28;20212;-65
2023/01/09 06:41:17;;;;;;;17.00;13.93;;;6.50;99.90;;;;;;5008185;28;20214;-63
2023/01/09 06:43:43;;;;;;;17.33;13.60;;;6.50;99.90;;;;;;5010866;28;20663;-64
2023/01/09 06:46:08;;;;;;;15.80;12.67;;;6.50;99.90;;;;;;5010723;28;20333;-63
2023/01/09 06:48:34;;;;;;;15.50;11.67;;;6.50;99.90;;;;;;5006090;28;20570;-63
2023/01/09 06:51:00;;;;;;;17.20;12.90;;;6.50;99.90;;;;;;5017828;28;20199;-65
2023/01/09 06:53:25;;;;;;;15.70;13.20;;;6.50;99.90;;;;;;5027422;28;20227;-64
2023/01/09 06:55:51;;;;;;;14.63;11.23;;;6.50;99.90;;;;;;5026891;28;20207;-64
2023/01/09 06:58:17;;;;;;;13.90;11.17;;;6.50;99.90;;;;;;5026538;28;20206;-65
2023/01/09 07:00:43;;;;;;;15.27;11.03;;;6.50;99.90;;;;;;5025143;28;20199;-64
2023/01/09 07:03:09;;;;;;;11.90;10.37;;;6.50;99.90;;;;;;5026504;28;20288;-64
2023/01/09 07:05:39;;;;;;;18.10;13.63;;;6.50;99.90;;;;;;5026316;28;20246;-65
2023/01/09 07:08:04;;;;;;;15.63;12.80;;;6.50;99.90;;;;;;5026088;28;20203;-65
2023/01/09 07:10:30;;;;;;;13.90;12.43;;;6.50;99.90;;;;;;5033652;28;20201;-65
2023/01/09 07:12:55;;;;;;;14.13;11.53;;;6.50;99.90;;;;;;5034830;28;20651;-64
2023/01/09 07:15:21;;;;;;;13.80;12.07;;;6.50;99.90;;;;;;5036683;28;20203;-64
2023/01/09 07:17:49;;;;;;;13.83;11.67;;;6.50;99.90;;;;;;5036597;28;20207;-67
2023/01/09 07:20:16;;;;;;;15.03;10.63;;;6.50;99.90;;;;;;5036581;28;20214;-66
2023/01/09 07:22:42;;;;;;;13.27;11.30;;;6.50;99.90;;;;;;5010225;28;20192;-66
2023/01/09 07:25:07;;;;;;;13.43;11.70;;;6.50;99.90;;;;;;5004729;28;20365;-64
2023/01/09 07:27:33;;;;;;;13.40;11.50;;;6.50;99.90;;;;;;5007613;28;20207;-65
2023/01/09 07:29:58;;;;;;;13.93;11.67;;;6.60;99.90;;;;;;5006662;28;20563;-64
2023/01/09 07:32:24;;;;;;;17.27;13.60;;;6.60;99.90;;;;;;5009090;28;20226;-64
2023/01/09 07:34:50;;;;;;;13.37;10.83;;;6.60;99.90;;;;;;5010295;28;20214;-66
2023/01/09 07:37:16;;;;;;;14.87;11.93;;;6.60;99.90;;;;;;5014774;28;20727;-64
2023/01/09 07:39:42;;;;;;;16.50;13.97;;;6.60;99.90;;;;;;5010109;28;20227;-65
2023/01/09 07:42:07;;;;;;;16.27;11.43;;;6.60;99.90;;;;;;5011559;28;20305;-65
2023/01/09 07:44:33;;;;;;;14.30;11.27;;;6.60;99.90;;;;;;5013990;28;20247;-65
2023/01/09 07:46:58;;;;;;;15.90;12.97;;;6.60;99.90;;;;;;5009413;28;20195;-64
2023/01/09 07:49:24;;;;;;;15.43;11.60;;;6.60;99.90;;;;;;5009793;28;20368;-65
2023/01/09 07:51:49;;;;;;;15.00;10.87;;;6.70;99.90;;;;;;5009377;28;20203;-64
2023/01/09 07:54:15;;;;;;;14.23;12.07;;;6.70;99.90;;;;;;5008298;28;20212;-65
2023/01/09 07:56:40;;;;;;;14.67;12.60;;;6.70;99.90;;;;;;5009940;28;20793;-65
2023/01/09 07:59:06;;;;;;;11.87;10.10;;;6.70;99.90;;;;;;5022572;28;20723;-69
2023/01/09 08:01:31;;;;;;;14.57;10.43;;;6.70;99.90;;;;;;5016297;28;20203;-69
2023/01/09 08:03:57;;;;;;;16.80;13.70;;;6.70;99.90;;;;;;5024175;28;20218;-69
2023/01/09 08:06:22;;;;;;;13.97;10.57;;;6.80;99.90;;;;;;5026522;28;20203;-69
2023/01/09 08:08:48;;;;;;;14.87;13.30;;;6.80;99.90;;;;;;5025980;28;20568;-69
2023/01/09 08:11:14;;;;;;;15.90;14.07;;;6.80;99.90;;;;;;5028891;28;20233;-69
2023/01/09 08:13:40;;;;;;;14.47;11.73;;;6.90;99.90;;;;;;5031152;28;20230;-69
2023/01/09 08:16:06;;;;;;;14.53;12.30;;;6.90;99.90;;;;;;5028924;28;20260;-69
2023/01/09 08:18:31;;;;;;;12.77;10.43;;;6.90;99.90;;;;;;5027043;28;20245;-69
2023/01/09 08:20:57;;;;;;;15.27;13.53;;;6.90;99.90;;;;;;5025317;28;20207;-68
2023/01/09 08:23:22;;;;;;;17.27;12.87;;;6.90;99.90;;;;;;5023689;28;20663;-69
2023/01/09 08:25:48;;;;;;;13.80;10.67;;;6.90;99.90;;;;;;5013002;28;20337;-69
2023/01/09 08:28:13;;;;;;;13.17;11.57;;;7.00;99.90;;;;;;5010333;28;20199;-69
2023/01/09 08:30:39;;;;;;;15.30;11.83;;;7.00;99.90;;;;;;5011639;28;20282;-69
2023/01/09 08:33:04;;;;;;;13.80;11.43;;;7.00;99.90;;;;;;5016579;28;20658;-69
2023/01/09 08:35:30;;;;;;;15.43;13.13;;;7.00;99.90;;;;;;5012274;28;20215;-69
2023/01/09 08:37:55;;;;;;;15.63;12.57;;;7.10;99.90;;;;;;5012181;28;20196;-70
2023/01/09 08:40:21;;;;;;;13.37;11.63;;;7.10;99.90;;;;;;5015771;28;20199;-68
2023/01/09 08:48:15;;;;;;;18.27;15.07;;;7.20;99.90;;;;;;5015088;28;20249;-68
2023/01/09 08:50:42;;;;;;;19.47;11.97;;;7.20;99.90;;;;;;5013225;28;20200;-68
2023/01/09 08:53:08;;;;;;;15.90;12.00;;;7.20;99.90;;;;;;5012725;28;20819;-69
2023/01/09 08:55:34;;;;;;;18.50;11.77;;;7.20;99.90;;;;;;5012790;28;20299;-69
2023/01/09 08:58:00;;;;;;;14.10;11.60;;;7.20;99.90;;;;;;5012899;28;20375;-67
2023/01/09 09:00:25;;;;;;;15.57;13.10;;;7.20;99.90;;;;;;5014903;28;20595;-69
2023/01/09 09:02:56;;;;;;;15.00;11.67;;;7.30;99.90;;;;;;5030079;28;20248;-69
2023/01/09 09:05:22;;;;;;;12.77;11.43;;;7.30;99.90;;;;;;5038098;28;20217;-68
2023/01/09 09:07:49;;;;;;;13.47;12.07;;;7.30;99.90;;;;;;5036572;28;20202;-68
2023/01/09 09:10:16;;;;;;;18.43;13.67;;;7.40;99.90;;;;;;5026344;28;20200;-69
2023/01/09 09:12:42;;;;;;;15.03;12.17;;;7.40;99.90;;;;;;5015944;28;20231;-71
2023/01/09 09:15:11;;;;;;;16.57;12.87;;;7.40;99.90;;;;;;5030051;28;20563;-54
2023/01/09 09:17:39;;;;;;;20.37;13.77;;;7.60;99.90;;;;;;5038561;28;20253;-56
2023/01/09 09:20:05;;;;;;;17.87;14.10;;;7.70;99.90;;;;;;5009459;28;20208;-56
2023/01/09 09:22:31;;;;;;;14.57;12.23;;;7.80;99.90;;;;;;5035675;28;20317;-56
2023/01/09 09:24:56;;;;;;;15.03;12.33;;;7.90;99.90;;;;;;5036952;28;20297;-57
2023/01/09 09:27:22;;;;;;;15.50;12.33;;;8.10;99.90;;;;;;5037425;28;20724;-69
2023/01/09 09:29:47;;;;;;;15.27;12.27;;;8.30;99.90;;;;;;5033730;28;20195;-70
2023/01/09 09:32:13;;;;;;;14.47;11.73;;;8.40;99.90;;;;;;5037862;28;20198;-70
2023/01/09 09:34:38;;;;;;;13.43;11.63;;;8.60;99.90;;;;;;5038093;28;20197;-55
2023/01/09 09:37:04;;;;;;;14.33;11.23;;;8.80;99.90;;;;;;5026115;28;20202;-57
2023/01/09 09:39:29;;;;;;;12.27;10.97;;;8.90;99.90;;;;;;5028423;28;20515;-57
2023/01/09 09:45:32;;;;;;;14.03;11.30;;;8.90;99.90;;;;;;5020453;28;20238;-56
2023/01/09 09:48:35;;;;;;;13.47;10.53;;;8.90;99.90;;;;;;5028249;28;20194;-56
2023/01/09 09:51:21;;;;;;;13.20;9.63;;;8.80;99.90;;;;;;5035182;28;20768;-56
2023/01/09 09:54:07;;;;;;;13.83;11.83;;;8.80;99.90;;;;;;5024281;28;20195;-65
2023/01/09 09:56:40;;;;;;;12.43;10.13;;;8.70;99.90;;;;;;5031104;28;20195;-70
2023/01/09 09:59:13;;;;;;;14.13;11.10;;;8.60;99.90;;;;;;5026299;28;20203;-69
2023/01/09 10:01:43;;;;;;;13.60;10.77;;;8.40;99.90;;;;;;5028749;28;20200;-67
2023/01/09 10:04:16;;;;;;;18.43;11.37;;;8.40;99.90;;;;;;5028183;28;20297;-67
2023/01/09 10:06:46;;;;;;;11.43;10.10;;;8.40;99.90;;;;;;5027213;28;20405;-68
2023/01/09 10:09:25;;;;;;;10.63;9.53;;;8.30;99.90;;;;;;5029077;28;20272;-68
2023/01/09 10:11:59;;;;;;;12.07;10.23;;;8.30;99.90;;;;;;5036533;28;20214;-68
2023/01/09 10:14:24;;;;;;;13.67;9.57;;;8.30;99.90;;;;;;5033993;28;20209;-67
2023/01/09 10:17:10;;;;;;;9.37;8.47;;;8.30;99.90;;;;;;5034156;28;20195;-67
2023/01/09 10:20:03;;;;;;;12.07;8.97;;;8.30;99.90;;;;;;5036696;28;20301;-66
2023/01/09 10:22:32;;;;;;;10.40;8.47;;;8.30;99.90;;;;;;5035907;28;20206;-66
2023/01/09 10:25:28;;;;;;;9.50;8.40;;;8.30;99.90;;;;;;5032589;28;20215;-66
2023/01/09 10:28:16;;;;;;;9.67;8.30;;;8.30;99.90;;;;;;5036900;28;20278;-67
2023/01/09 10:30:49;;;;;;;9.27;8.33;;;8.20;99.90;;;;;;5036773;28;20285;-66
2023/01/09 10:33:45;;;;;;;8.90;7.57;;;8.30;99.90;;;;;;5036582;28;20254;-65
2023/01/09 10:36:33;;;;;;;8.93;7.07;;;8.30;99.90;;;;;;5036956;28;20233;-66
2023/01/09 10:39:03;;;;;;;9.97;8.13;;;8.20;99.90;;;;;;5036522;28;20578;-66
2023/01/09 10:41:38;;;;;;;8.03;7.23;;;8.30;99.90;;;;;;5036481;28;20261;-67
2023/01/09 10:44:37;;;;;;;8.90;7.10;;;8.40;99.90;;;;;;5024454;28;20232;-67
2023/01/09 10:47:09;;;;;;;9.33;7.27;;;8.50;99.90;;;;;;5036666;28;20282;-68
2023/01/09 10:49:37;;;;;;;9.07;6.67;;;8.50;99.90;;;;;;5037080;28;20260;-66
2023/01/09 10:52:09;;;;;;;8.33;7.53;;;8.50;99.90;;;;;;5036708;28;20288;-67
2023/01/09 10:54:41;;;;;;;8.13;7.33;;;8.40;99.90;;;;;;5035835;28;20289;-67
2023/01/09 10:57:13;;;;;;;8.07;7.23;;;8.40;99.90;;;;;;5034685;28;20213;-66
2023/01/09 10:59:42;;;;;;;8.80;7.33;;;8.30;99.90;;;;;;5036793;28;20202;-66
2023/01/09 11:02:23;;;;;;;8.20;6.83;;;8.30;99.90;;;;;;5036161;28;20219;-66
2023/01/09 11:04:49;;;;;;;7.77;6.97;;;8.30;99.90;;;;;;5036242;28;20202;-66
2023/01/09 11:07:19;;;;;;;7.27;6.33;;;8.30;99.90;;;;;;5035516;28;20335;-66
2023/01/09 11:09:58;;;;;;;8.30;6.60;;;8.30;99.90;;;;;;5035771;28;20201;-66
2023/01/09 11:12:27;;;;;;;6.70;6.07;;;8.30;99.90;;;;;;5036637;28;20225;-66
2023/01/09 11:14:52;;;;;;;6.20;5.60;;;8.30;99.90;;;;;;5037092;28;20600;-67
2023/01/09 11:17:20;;;;;;;6.53;5.93;;;8.30;99.90;;;;;;5036408;28;20209;-67
2023/01/09 11:20:04;;;;;;;5.97;5.40;;;8.20;99.90;;;;;;5034465;28;20676;-67
2023/01/09 11:22:42;;;;;;;6.10;5.50;;;8.20;99.90;;;;;;5035497;28;20199;-67
2023/01/09 11:25:11;;;;;;;6.13;5.40;;;8.20;99.90;;;;;;5036723;28;20296;-67
2023/01/09 11:27:37;;;;;;;5.37;4.87;;;8.20;99.90;;;;;;5036369;28;21002;-66
2023/01/09 11:30:06;;;;;;;6.07;5.47;;;8.20;99.90;;;;;;5036463;28;20191;-67
2023/01/09 11:32:33;;;;;;;7.17;5.30;;;8.20;99.90;;;;;;5033415;28;20237;-67
2023/01/09 11:34:58;;;;;;;6.20;4.83;;;8.30;99.90;;;;;;5036187;28;20245;-66
2023/01/09 11:37:29;;;;;;;5.07;4.57;;;8.30;99.90;;;;;;5036245;28;20607;-66
2023/01/09 11:39:56;;;;;;;4.87;4.43;;;8.30;99.90;;;;;;5035875;28;20206;-66
2023/01/09 11:42:50;;;;;;;5.17;4.67;;;8.40;99.90;;;;;;5033578;28;20567;-68
2023/01/09 11:45:22;;;;;;;6.20;3.67;;;8.40;99.90;;;;;;5037675;28;20217;-68
2023/01/09 11:47:47;;;;;;;5.60;5.10;;;8.40;99.90;;;;;;5039601;28;20198;-68
2023/01/09 11:50:24;;;;;;;6.33;4.90;;;8.40;99.90;;;;;;5040022;28;20553;-68
2023/01/09 11:53:18;;;;;;;8.63;5.43;;;8.40;99.90;;;;;;5038170;28;20222;-67
2023/01/09 11:55:45;;;;;;;5.67;4.70;;;8.40;99.90;;;;;;5037703;28;20680;-67
2023/01/09 11:58:18;;;;;;;8.17;4.70;;;8.50;99.90;;;;;;5039558;28;20206;-71
2023/01/09 12:01:03;;;;;;;5.40;4.80;;;8.50;99.90;;;;;;5039788;28;20213;-67
2023/01/09 12:03:47;;;;;;;4.83;4.43;;;8.60;99.90;;;;;;5017593;28;20242;-66
2023/01/09 12:06:41;;;;;;;7.40;3.90;;;8.70;99.90;;;;;;5025705;28;20214;-66
2023/01/09 12:09:15;;;;;;;5.53;3.73;;;8.90;99.90;;;;;;5036046;28;20212;-66
2023/01/09 12:12:00;;;;;;;5.80;3.33;;;9.50;99.90;;;;;;5039647;28;20322;-66
2023/01/09 12:14:35;;;;;;;4.13;3.00;;;10.40;99.90;;;;;;5015347;28;20206;-66
2023/01/09 12:17:29;;;;;;;2.20;2.10;;;11.30;99.90;;;;;;5029739;28;20210;-67
2023/01/09 12:20:24;;;;;;;3.47;2.47;;;11.50;99.90;;;;;;5027283;28;20228;-66
2023/01/09 12:23:33;;;;;;;4.07;2.40;;;11.50;99.90;;;;;;5027793;28;20209;-67
2023/01/09 12:26:15;;;;;;;3.77;2.03;;;11.50;99.90;;;;;;5007760;28;20712;-67
2023/01/09 12:28:58;;;;;;;2.93;2.10;;;11.60;99.90;;;;;;5032937;28;20201;-67
2023/01/09 12:32:08;;;;;;;2.47;1.87;;;11.50;99.90;;;;;;5033102;28;20675;-70
2023/01/09 12:35:17;;;;;;;3.13;2.40;;;10.90;99.90;;;;;;5039185;28;20543;-73
2023/01/09 12:38:08;;;;;;;2.90;2.10;;;10.20;99.90;;;;;;5038280;28;20662;-71
2023/01/09 12:40:40;;;;;;;5.07;2.20;;;10.10;99.90;;;;;;5039438;28;20291;-71
2023/01/09 12:43:34;;;;;;;3.60;2.83;;;10.20;99.90;;;;;;5039431;28;20215;-74
2023/01/09 12:46:06;;;;;;;4.27;2.40;;;10.20;99.90;;;;;;5031387;28;20323;-72
2023/01/09 12:48:57;;;;;;;4.50;2.73;;;10.10;99.90;;;;;;5033613;28;20206;-72
2023/01/09 12:51:54;;;;;;;3.10;2.70;;;9.90;99.90;;;;;;5027084;28;20203;-72
2023/01/09 12:54:26;;;;;;;5.20;2.40;;;9.80;99.90;;;;;;5027837;28;20294;-73
2023/01/09 12:56:57;;;;;;;6.87;2.93;;;9.70;99.90;;;;;;5026410;28;20245;-68
2023/01/09 12:59:55;;;;;;;5.13;2.80;;;9.80;99.90;;;;;;5038919;28;20208;-69
2023/01/09 13:02:31;;;;;;;4.90;2.67;;;10.50;99.90;;;;;;5039181;28;20210;-76
2023/01/09 13:05:08;;;;;;;2.47;2.13;;;11.40;99.90;;;;;;5020734;28;20245;-56
2023/01/09 13:07:41;;;;;;;2.70;1.97;;;11.60;99.90;;;;;;5012154;28;20201;-57
2023/01/09 13:10:32;;;;;;;2.10;1.90;;;11.40;99.90;;;;;;5015243;28;20272;-56
2023/01/09 13:13:05;;;;;;;3.47;1.93;;;11.20;99.90;;;;;;5033050;28;20341;-56